Flight Track Log - Related Links

Times and Time Zones

All times are in EDT time to prevent confusion due to time zone crossing. See the AAY846 flight status page for this flight to view local times or setup timezone preferences in your user account.

Time Position Orientation Groundspeed Altitude Reporting Facility
EDT Latitude Longitude Course Direction KTS MPH feet Rate Location/Type
Thu 08:26:23 AM 27.9000 -82.6833 180° South 160 184 900  Level Tampa TRACON
Thu 08:27:11 AM 27.8500 -82.6833 180° South 185 213 2,400 1,824 Climbing Tampa TRACON
Thu 08:28:05 AM 27.8167 -82.7000 204° Southwest 223 257 4,000 895 Climbing Tampa TRACON
Thu 08:29:05 AM 27.7833 -82.7667 241° Southwest 270 311 4,100 500 Climbing Tampa TRACON
Thu 08:30:05 AM 27.7833 -82.8500 270° West 284 327 5,000 1,774 Climbing Tampa TRACON
Thu 08:31:00 AM 27.8333 -82.8667 344° North 280 322 7,500 2,566 Climbing Tampa TRACON
Thu 08:32:44 AM 27.9683 -82.7892 27° Northeast 305 351 11,800 2,049 Climbing Jacksonville Center
Thu 08:33:44 AM 28.0475 -82.7467 25° Northeast 310 357 13,100 1,516 Climbing Jacksonville Center
Thu 08:34:15 AM 28.0756 -82.7306 27° Northeast 309 356 14,100 2,152 Climbing Miami Center
Thu 08:35:16 AM 28.1819 -82.7183 North 313 360 16,400 1,854 Climbing Miami Center
Thu 08:36:18 AM 28.2742 -82.7167 North 324 373 17,900 1,790 Climbing Miami Center
Thu 08:37:20 AM 28.3703 -82.7186 359° North 337 388 20,100 1,610 Climbing Miami Center
Thu 08:38:21 AM 28.4639 -82.7356 351° North 338 389 21,200 1,317 Climbing Miami Center
Thu 08:39:23 AM 28.5650 -82.7517 352° North 349 402 22,800 1,113 Climbing Miami Center
Thu 08:40:25 AM 28.6764 -82.7700 352° North 380 437 23,500 829 Climbing Miami Center
Thu 08:41:26 AM 28.7872 -82.7986 347° North 397 457 24,500 976 Climbing Miami Center
Thu 08:42:28 AM 28.9017 -82.8308 346° North 412 474 25,500 919 Climbing Miami Center
Thu 08:43:30 AM 29.0419 -82.8697 346° North 424 488 26,400 919 Climbing Miami Center
Thu 08:44:32 AM 29.1622 -82.9025 347° North 434 499 27,400 732 Climbing Miami Center
Thu 08:45:33 AM 29.2839 -82.9328 348° North 441 507 27,900 683 Climbing Miami Center
Thu 08:46:35 AM 29.4000 -82.9914 336° Northwest 456 525 28,800 871 Climbing Miami Center
Thu 08:47:37 AM 29.5050 -83.0694 327° Northwest 449 517 29,700 871 Climbing Miami Center
Thu 08:48:39 AM 29.6122 -83.1464 328° Northwest 448 516 30,600 829 Climbing Miami Center
Thu 08:49:40 AM 29.7200 -83.2244 328° Northwest 448 516 31,400 672 Climbing Miami Center
Thu 08:50:44 AM 29.8358 -83.3092 328° Northwest 448 516 32,000 290 Climbing Jacksonville Center
Thu 08:51:44 AM 29.9442 -83.3886 328° Northwest 453 521 32,000 -50 Level Jacksonville Center
Thu 08:52:44 AM 30.0564 -83.4686 328° Northwest 458 527 31,900 -50 Descending Jacksonville Center
Thu 08:53:44 AM 30.1625 -83.5436 329° Northwest 458 527 31,900 50 Level Jacksonville Center
Thu 08:54:44 AM 30.2708 -83.6214 328° Northwest 453 521 32,000 50 Climbing Jacksonville Center
Thu 08:55:44 AM 30.3789 -83.7017 327° Northwest 453 521 32,000 -50 Level Jacksonville Center
Thu 08:56:44 AM 30.4889 -83.7772 329° Northwest 453 521 31,900  Descending Jacksonville Center
Thu 08:57:44 AM 30.6053 -83.8678 326° Northwest 453 521 32,000 50 Climbing Jacksonville Center
Thu 08:58:44 AM 30.7153 -83.9486 328° Northwest 458 527 32,000  Level Jacksonville Center
Thu 08:59:44 AM 30.8211 -84.0272 327° Northwest 458 527 32,000  Level Jacksonville Center
Thu 09:00:44 AM 30.9289 -84.1058 328° Northwest 458 527 32,000  Level Jacksonville Center
Thu 09:01:44 AM 31.0386 -84.1872 328° Northwest 463 533 32,000  Level Jacksonville Center
Thu 09:02:44 AM 31.1444 -84.2664 327° Northwest 463 533 32,000  Level Jacksonville Center
Thu 09:03:44 AM 31.2542 -84.3483 327° Northwest 463 533 32,000  Level Jacksonville Center
Thu 09:04:44 AM 31.3411 -84.4128 328° Northwest 463 533 32,000  Level Jacksonville Center
Thu 09:05:44 AM 31.4569 -84.4975 328° Northwest 458 527 32,000  Level Jacksonville Center
Thu 09:08:05 AM 31.7072 -84.6881 327° Northwest 471 542 32,000  Level Atlanta Center
Thu 09:09:05 AM 31.8114 -84.7647 328° Northwest 457 526 32,000  Level Atlanta Center
Thu 09:10:05 AM 31.9217 -84.8244 335° Northwest 451 519 32,000  Level Atlanta Center
Thu 09:11:05 AM 32.0422 -84.8644 344° North 439 505 32,000  Level Atlanta Center
Thu 09:12:05 AM 32.1694 -84.9100 343° North 434 499 32,000  Level Atlanta Center
Thu 09:13:05 AM 32.2858 -84.9456 346° North 434 499 32,000  Level Atlanta Center
Thu 09:14:05 AM 32.4089 -84.9886 344° North 442 509 32,000  Level Atlanta Center
Thu 09:16:05 AM 32.6567 -85.0700 345° North 452 520 32,000  Level Atlanta Center
Thu 09:17:05 AM 32.7689 -85.1061 345° North 451 519 32,000  Level Atlanta Center
Thu 09:18:05 AM 32.8856 -85.1419 346° North 452 520 32,000  Level Atlanta Center
Thu 09:19:05 AM 33.0144 -85.1908 342° North 449 517 32,000  Level Atlanta Center
Thu 09:20:06 AM 33.1225 -85.2369 340° North 455 524 32,000  Level Atlanta Center
Thu 09:21:05 AM 33.2389 -85.2906 339° North 455 524 32,000  Level Atlanta Center
Thu 09:22:05 AM 33.3553 -85.3469 338° Northwest 450 518 32,000  Level Atlanta Center
Thu 09:23:05 AM 33.4717 -85.4011 339° North 450 518 32,000  Level Atlanta Center
Thu 09:24:05 AM 33.5900 -85.4553 339° North 450 518 32,000  Level Atlanta Center
Thu 09:25:38 AM 33.7778 -85.5428 339° North 446 513 32,000  Level Memphis Center
Thu 09:26:40 AM 33.8936 -85.5981 338° Northwest 447 514 32,000  Level Memphis Center
Thu 09:27:42 AM 34.0092 -85.6514 339° North 447 514 32,000  Level Memphis Center
Thu 09:28:44 AM 34.1236 -85.7058 339° North 446 513 32,000  Level Memphis Center
Thu 09:29:46 AM 34.2358 -85.7600 338° Northwest 441 507 32,000  Level Memphis Center
Thu 09:30:49 AM 34.3494 -85.8133 339° North 441 507 32,000  Level Memphis Center
Thu 09:31:51 AM 34.4850 -85.8778 339° North 440 506 32,000  Level Memphis Center
Thu 09:32:53 AM 34.5983 -85.9325 338° Northwest 440 506 32,000  Level Memphis Center
Thu 09:33:55 AM 34.7122 -85.9875 338° Northwest 440 506 32,000  Level Memphis Center
Thu 09:34:57 AM 34.8186 -86.0378 339° North 438 504 32,000  Level Memphis Center
Thu 09:35:59 AM 34.9547 -86.1033 338° Northwest 437 503 32,000  Level Memphis Center
Thu 09:37:01 AM 35.0669 -86.1575 338° Northwest 437 503 32,000  Level Memphis Center
Thu 09:38:03 AM 35.1728 -86.2086 338° Northwest 435 501 32,000  Level Memphis Center
Thu 09:39:05 AM 35.2864 -86.2656 338° Northwest 436 502 32,000  Level Memphis Center
Thu 09:40:07 AM 35.4203 -86.3294 339° North 436 502 32,000  Level Memphis Center
Thu 09:41:09 AM 35.5342 -86.3842 339° North 436 502 32,000  Level Memphis Center
Thu 09:42:11 AM 35.6456 -86.4411 337° Northwest 433 498 32,000  Level Memphis Center
Thu 09:43:13 AM 35.7592 -86.4958 339° North 433 498 32,000  Level Memphis Center
Thu 09:44:15 AM 35.8714 -86.5514 338° Northwest 433 498 32,000  Level Memphis Center
Thu 09:45:17 AM 35.9847 -86.6078 338° Northwest 433 498 32,000  Level Memphis Center
Thu 09:46:20 AM 36.0981 -86.6650 338° Northwest 434 499 32,000  Level Memphis Center
Thu 09:47:22 AM 36.2261 -86.7358 336° Northwest 433 498 32,000  Level Memphis Center
Thu 09:48:24 AM 36.3325 -86.7886 338° Northwest 427 491 32,000  Level Memphis Center
Thu 09:49:26 AM 36.4397 -86.8594 332° Northwest 440 506 32,000  Level Memphis Center
Thu 09:50:28 AM 36.5447 -86.9233 334° Northwest 423 487 32,000  Level Memphis Center
Thu 09:51:30 AM 36.6675 -86.9961 335° Northwest 419 482 32,000  Level Memphis Center
Thu 09:52:32 AM 36.7744 -87.0603 334° Northwest 419 482 32,000  Level Memphis Center
Thu 09:53:34 AM 36.8817 -87.1244 334° Northwest 421 484 32,000  Level Memphis Center
Thu 09:54:36 AM 36.9872 -87.1875 334° Northwest 419 482 32,000  Level Memphis Center
Thu 09:55:38 AM 37.0917 -87.2517 334° Northwest 418 481 32,000  Level Memphis Center
Thu 09:56:41 AM 37.1978 -87.3150 335° Northwest 418 481 32,000  Level Memphis Center
Thu 09:57:42 AM 37.3211 -87.3894 334° Northwest 418 481 32,000  Level Memphis Center
Thu 09:58:14 AM 37.3750 -87.4225 334° Northwest 418 481 32,000  Level Indianapolis Center
Thu 09:59:16 AM 37.4803 -87.4869 334° Northwest 418 481 32,000  Level Indianapolis Center
Thu 10:00:19 AM 37.5853 -87.5517 334° Northwest 418 481 32,000  Level Indianapolis Center
Thu 10:01:21 AM 37.6908 -87.6161 334° Northwest 418 481 32,000  Level Indianapolis Center
Thu 10:02:23 AM 37.7903 -87.6767 334° Northwest 418 481 32,000  Level Indianapolis Center
Thu 10:03:25 AM 37.9147 -87.7539 334° Northwest 414 476 32,000  Level Indianapolis Center
Thu 10:04:57 AM 38.0556 -87.8364 335° Northwest 413 475 32,000  Level Memphis Center
Thu 10:05:29 AM 38.1217 -87.8753 335° Northwest 407 468 32,000  Level Indianapolis Center
Thu 10:06:31 AM 38.2256 -87.9367 335° Northwest 407 468 32,000  Level Indianapolis Center
Thu 10:07:33 AM 38.3306 -88.0000 335° Northwest 408 470 32,000  Level Indianapolis Center
Thu 10:08:35 AM 38.4364 -88.0633 335° Northwest 413 475 32,000  Level Indianapolis Center
Thu 10:09:37 AM 38.5436 -88.1272 335° Northwest 417 480 32,000 -391 Level Indianapolis Center
Thu 10:10:53 AM 38.6708 -88.2031 335° Northwest 417 480 31,100 -870 Descending Kansas City Center
Thu 10:11:55 AM 38.7983 -88.2803 335° Northwest 418 481 30,000 -1,016 Descending Kansas City Center
Thu 10:12:57 AM 38.9061 -88.3450 335° Northwest 420 483 29,000 -1,024 Descending Kansas City Center
Thu 10:13:58 AM 39.0161 -88.4122 335° Northwest 428 493 27,900 -968 Descending Kansas City Center
Thu 10:15:01 AM 39.1264 -88.4797 335° Northwest 430 495 27,000 -931 Descending Kansas City Center
Thu 10:16:52 AM 39.3278 -88.6033 335° Northwest 443 510 25,200 -971 Descending Indianapolis Center
Thu 10:17:54 AM 39.4417 -88.6711 335° Northwest 443 510 24,200 -968 Descending Indianapolis Center
Thu 10:18:56 AM 39.5786 -88.7544 335° Northwest 446 513 23,200 -871 Descending Indianapolis Center
Thu 10:19:58 AM 39.6836 -88.8164 336° Northwest 431 496 22,400 -926 Descending Indianapolis Center
Thu 10:21:12 AM 39.7797 -88.8869 331° Northwest 397 457 21,100 -1,378 Descending Kansas City Center
Thu 10:22:13 AM 39.8861 -88.9872 324° Northwest 394 453 19,300 -1,902 Descending Kansas City Center
Thu 10:24:15 AM 40.0667 -89.1481 326° Northwest 394 453 15,300 -1,844 Descending Kansas City Center
Thu 10:25:38 AM 40.1853 -89.2375 330° Northwest 347 399 13,000 -1,366 Descending Chicago Center
Thu 10:26:40 AM 40.2678 -89.2789 339° North 323 372 12,000 -1,065 Descending Chicago Center
Thu 10:27:42 AM 40.3414 -89.3178 338° Northwest 290 334 10,800 -1,403 Descending Chicago Center
Thu 10:28:44 AM 40.4128 -89.3542 339° North 280 322 9,100 -1,790 Descending Chicago Center
Thu 10:29:46 AM 40.4831 -89.3944 336° Northwest 279 321 7,100 -1,891 Descending Chicago Center
Thu 10:31:29 AM 40.5978 -89.4611 336° Northwest 258 297 3,900 -1,537 Descending Kansas City Center
Thu 10:32:30 AM 40.6422 -89.5086 321° Northwest 225 259 2,900 -740 Descending Kansas City Center
Thu 10:33:55 AM 40.6914 -89.5681 317° Northwest 185 213 2,100 -490 Descending Chicago Center
Thu 10:34:57 AM 40.7078 -89.6231 291° West 170 196 1,700 -629 Descending Chicago Center
Thu 10:35:59 AM 40.6758 -89.6708 229° Southwest 154 177 800 -532 Descending Chicago Center
Thu 10:37:01 AM 40.6467 -89.6992 216° Southwest 149 171 600 -194 Descending Chicago Center

Login

Don't have an account? Register now (free) for customized features, flight alerts, and more!